createdAt,value
2017-08-23T00:00:04.498Z,20.4
2017-08-23T00:01:12.583Z,20.4
2017-08-23T00:02:20.670Z,20.5
2017-08-23T00:03:28.756Z,20.5
2017-08-23T00:04:36.840Z,20.5
2017-08-23T00:05:44.928Z,20.5
2017-08-23T00:06:53.014Z,20.4
2017-08-23T00:08:01.098Z,20.5
2017-08-23T00:09:09.184Z,20.5
2017-08-23T00:10:17.272Z,20.4
2017-08-23T00:11:25.357Z,20.4
2017-08-23T00:12:33.445Z,20.5
2017-08-23T00:13:41.529Z,20.5
2017-08-23T00:14:49.624Z,20.4
2017-08-23T00:15:57.711Z,20.6
2017-08-23T00:17:05.819Z,20.5
2017-08-23T00:18:13.885Z,20.5
2017-08-23T00:19:22.208Z,20.5
2017-08-23T00:20:30.054Z,20.4
2017-08-23T00:21:38.143Z,20.4
2017-08-23T00:22:46.228Z,20.4
2017-08-23T00:23:54.314Z,20.3
2017-08-23T00:25:02.401Z,20.3
2017-08-23T00:26:10.487Z,20.3
2017-08-23T00:27:18.577Z,20.3
2017-08-23T00:28:26.665Z,20.4
2017-08-23T00:29:34.744Z,20.4
2017-08-23T00:30:42.829Z,20.4
2017-08-23T00:31:50.916Z,20.3
2017-08-23T00:32:59.018Z,20.4
2017-08-23T00:34:07.087Z,20.4
2017-08-23T00:35:15.173Z,20.3
2017-08-23T00:36:23.260Z,20.4
2017-08-23T00:37:31.347Z,20.4
2017-08-23T00:38:39.433Z,20.4
2017-08-23T00:39:47.518Z,20.3
2017-08-23T00:40:55.604Z,20.4
2017-08-23T00:42:03.787Z,20.3
2017-08-23T00:43:11.781Z,20.4
2017-08-23T00:44:19.861Z,20.5
2017-08-23T00:45:27.955Z,20.3
2017-08-23T00:46:36.050Z,20.3
2017-08-23T00:47:44.160Z,20.4
2017-08-23T00:48:52.246Z,20.3
2017-08-23T00:50:00.334Z,20.4
2017-08-23T00:51:08.420Z,20.4
2017-08-23T00:52:16.504Z,20.4
2017-08-23T00:53:24.599Z,20.3
2017-08-23T00:54:32.685Z,20.4
2017-08-23T00:55:40.779Z,20.3
2017-08-23T00:56:48.867Z,20.3
2017-08-23T00:57:56.952Z,20.4
2017-08-23T00:59:05.039Z,20.3
2017-08-23T01:00:13.123Z,20.4
2017-08-23T01:01:21.211Z,20.4
2017-08-23T01:02:29.298Z,20.4
2017-08-23T01:03:37.383Z,20.4
2017-08-23T01:04:45.469Z,20.4
2017-08-23T01:05:53.558Z,20.4
2017-08-23T01:07:01.643Z,20.4
2017-08-23T01:08:09.729Z,20.4
2017-08-23T01:09:17.811Z,20.4
2017-08-23T01:10:25.909Z,20.4
2017-08-23T01:11:34.000Z,20.4
2017-08-23T01:12:42.082Z,20.4
2017-08-23T01:13:50.185Z,20.3
2017-08-23T01:14:58.261Z,20.3
2017-08-23T01:16:06.444Z,20.3
2017-08-23T01:17:14.502Z,20.3
2017-08-23T01:18:22.586Z,20.4
2017-08-23T01:19:30.671Z,20.3
2017-08-23T01:20:38.760Z,20.3
2017-08-23T01:21:46.875Z,20.3
2017-08-23T01:22:54.939Z,20.3
2017-08-23T01:24:03.025Z,20.3
2017-08-23T01:25:11.113Z,20.3
2017-08-23T01:26:19.288Z,20.3
2017-08-23T01:27:27.372Z,20.3
2017-08-23T01:28:35.460Z,20.3
2017-08-23T01:29:43.545Z,20.3
2017-08-23T01:30:51.632Z,20.3
2017-08-23T01:31:59.718Z,20.2
2017-08-23T01:33:07.808Z,20.3
2017-08-23T01:34:15.900Z,20.3
2017-08-23T01:35:23.981Z,20.3
2017-08-23T01:36:32.064Z,20.2
2017-08-23T01:37:40.153Z,20.3
2017-08-23T01:38:48.240Z,20.3
2017-08-23T01:39:56.332Z,20.2
2017-08-23T01:41:04.412Z,20.3
2017-08-23T01:42:12.498Z,20.2
2017-08-23T01:43:20.586Z,20.3
2017-08-23T01:44:28.669Z,20.3
2017-08-23T01:45:36.763Z,20.3
2017-08-23T01:46:44.840Z,20.2
2017-08-23T01:47:52.926Z,20.3
2017-08-23T01:49:01.014Z,20.2
2017-08-23T01:50:09.100Z,20.3
2017-08-23T01:51:17.191Z,20.2
2017-08-23T01:52:25.279Z,20.2
2017-08-23T01:53:33.366Z,20.3
2017-08-23T01:54:41.451Z,20.3
2017-08-23T01:55:49.543Z,20.2
2017-08-23T01:56:57.631Z,20.3
2017-08-23T01:58:05.723Z,20.3
2017-08-23T01:59:13.805Z,20.3
2017-08-23T02:00:21.892Z,20.2
2017-08-23T02:01:29.977Z,20.2
2017-08-23T02:02:38.061Z,20.2
2017-08-23T02:03:46.148Z,20.2
2017-08-23T02:04:54.252Z,20.3
2017-08-23T02:06:02.339Z,20.2
2017-08-23T02:07:10.423Z,20.2
2017-08-23T02:08:18.508Z,20.2
2017-08-23T02:09:26.597Z,20.1
2017-08-23T02:10:34.690Z,20.2
2017-08-23T02:11:42.771Z,20.1
2017-08-23T02:12:50.855Z,20.2
2017-08-23T02:13:58.946Z,20.2
2017-08-23T02:15:07.028Z,20.2
2017-08-23T02:16:15.114Z,20.2
2017-08-23T02:17:23.199Z,20.2
2017-08-23T02:18:31.284Z,20.2
2017-08-23T02:19:39.375Z,20.2
2017-08-23T02:20:47.467Z,20.2
2017-08-23T02:21:55.543Z,20.2
2017-08-23T02:23:03.629Z,20.2
2017-08-23T02:24:11.715Z,20.2
2017-08-23T02:25:19.803Z,20.2
2017-08-23T02:26:27.890Z,20.1
2017-08-23T02:27:35.980Z,20.2
2017-08-23T02:28:44.064Z,20.3
2017-08-23T02:29:52.151Z,20.2
2017-08-23T02:31:00.239Z,20.2
2017-08-23T02:32:08.324Z,20.2
2017-08-23T02:33:16.410Z,20.2
2017-08-23T02:34:24.498Z,20.2
2017-08-23T02:35:32.602Z,20.1
2017-08-23T02:36:40.668Z,20.2
2017-08-23T02:37:48.754Z,20.2
2017-08-23T02:38:56.840Z,20.2
2017-08-23T02:40:04.967Z,20.2
2017-08-23T02:41:13.108Z,20.2
2017-08-23T02:42:21.140Z,20.2
2017-08-23T02:43:29.227Z,20.1
2017-08-23T02:44:37.311Z,20.2
2017-08-23T02:45:45.398Z,20.2
2017-08-23T02:46:53.483Z,20.2
2017-08-23T02:48:01.570Z,20.1
2017-08-23T02:49:09.655Z,20.1
2017-08-23T02:50:17.743Z,20.2
2017-08-23T02:51:25.828Z,20.2
2017-08-23T02:52:33.914Z,20.1
2017-08-23T02:53:42.001Z,20.1
2017-08-23T02:54:50.086Z,20.1
2017-08-23T02:55:58.171Z,20.1
2017-08-23T02:57:06.259Z,20.1
2017-08-23T02:58:14.345Z,20.1
2017-08-23T02:59:22.431Z,20.1
2017-08-23T03:00:30.516Z,20.1
2017-08-23T03:01:38.604Z,20.1
2017-08-23T03:02:46.709Z,20.1
2017-08-23T03:03:54.790Z,20.1
2017-08-23T03:05:02.880Z,20.1
2017-08-23T03:06:10.963Z,20.1
2017-08-23T03:07:19.071Z,20.1
2017-08-23T03:08:27.144Z,20.1
2017-08-23T03:09:35.224Z,20.1
2017-08-23T03:10:43.312Z,20.1
2017-08-23T03:11:51.397Z,20.1
2017-08-23T03:12:59.500Z,20.1
2017-08-23T03:14:07.573Z,20.1
2017-08-23T03:15:15.653Z,20.1
2017-08-23T03:16:23.740Z,20.1
2017-08-23T03:17:31.836Z,20.1
2017-08-23T03:18:39.921Z,20.1
2017-08-23T03:19:48.007Z,20.0
2017-08-23T03:20:56.094Z,20.1
2017-08-23T03:22:04.179Z,20.0
2017-08-23T03:23:12.265Z,20.0
2017-08-23T03:24:20.355Z,20.0
2017-08-23T03:25:28.437Z,20.1
2017-08-23T03:26:36.526Z,20.1
2017-08-23T03:27:44.608Z,20.1
2017-08-23T03:28:52.697Z,20.1
2017-08-23T03:30:01.015Z,20.0
2017-08-23T03:31:08.875Z,20.0
2017-08-23T03:32:16.953Z,20.0
2017-08-23T03:33:25.047Z,20.1
2017-08-23T03:34:33.123Z,20.0
2017-08-23T03:35:41.210Z,20.1
2017-08-23T03:36:49.307Z,20.1
2017-08-23T03:37:57.391Z,20.0
2017-08-23T03:39:05.478Z,20.0
2017-08-23T03:40:13.583Z,20.0
2017-08-23T03:41:21.650Z,20.1
2017-08-23T03:42:29.737Z,20.0
2017-08-23T03:43:37.823Z,20.1
2017-08-23T03:44:45.910Z,20.0
2017-08-23T03:45:53.996Z,20.0
2017-08-23T03:47:02.084Z,20.1
2017-08-23T03:48:10.169Z,20.0
2017-08-23T03:49:18.251Z,20.1
2017-08-23T03:50:26.340Z,20.1
2017-08-23T03:51:34.424Z,20.0
2017-08-23T03:52:42.512Z,20.0
2017-08-23T03:53:50.596Z,20.0
2017-08-23T03:54:58.684Z,20.0
2017-08-23T03:56:06.772Z,20.0
2017-08-23T03:57:14.858Z,20.0
2017-08-23T03:58:22.965Z,20.0
2017-08-23T03:59:31.029Z,20.0
2017-08-23T04:00:39.113Z,19.9
2017-08-23T04:01:47.200Z,20.0
2017-08-23T04:02:55.293Z,20.0
2017-08-23T04:04:03.374Z,19.9
2017-08-23T04:05:11.461Z,20.0
2017-08-23T04:06:19.546Z,20.0
2017-08-23T04:07:27.632Z,20.0
2017-08-23T04:08:35.721Z,20.0
2017-08-23T04:09:43.802Z,19.9
2017-08-23T04:10:51.896Z,19.9
2017-08-23T04:11:59.978Z,19.9
2017-08-23T04:13:08.071Z,19.9
2017-08-23T04:14:16.177Z,19.9
2017-08-23T04:15:24.245Z,20.0
2017-08-23T04:16:32.328Z,19.9
2017-08-23T04:17:40.413Z,19.9
2017-08-23T04:18:48.505Z,20.0
2017-08-23T04:19:56.584Z,20.0
2017-08-23T04:21:04.672Z,20.0
2017-08-23T04:22:12.760Z,19.9
2017-08-23T04:23:20.844Z,19.9
2017-08-23T04:24:28.935Z,20.0
2017-08-23T04:25:37.019Z,19.9
2017-08-23T04:26:45.101Z,20.0
2017-08-23T04:27:53.186Z,19.9
2017-08-23T04:29:01.273Z,20.0
2017-08-23T04:30:09.363Z,20.0
2017-08-23T04:31:17.445Z,19.9
2017-08-23T04:32:25.534Z,20.0
2017-08-23T04:33:33.617Z,20.0
2017-08-23T04:34:41.706Z,20.0
2017-08-23T04:35:49.793Z,19.9
2017-08-23T04:36:57.884Z,19.9
2017-08-23T04:38:05.971Z,19.9
2017-08-23T04:39:14.067Z,19.9
2017-08-23T04:40:22.153Z,19.9
2017-08-23T04:41:30.239Z,20.0
2017-08-23T04:42:38.324Z,19.9
2017-08-23T04:43:46.410Z,20.0
2017-08-23T04:44:54.496Z,20.0
2017-08-23T04:46:02.581Z,20.0
2017-08-23T04:47:10.823Z,20.0
2017-08-23T04:48:18.754Z,20.0
2017-08-23T04:49:26.843Z,20.0
2017-08-23T04:50:34.934Z,20.0
2017-08-23T04:51:43.020Z,20.0
2017-08-23T04:52:51.106Z,20.0
2017-08-23T04:53:59.191Z,19.9
2017-08-23T04:55:07.278Z,20.0
2017-08-23T04:56:15.406Z,19.9
2017-08-23T04:57:23.475Z,19.9
2017-08-23T04:58:31.538Z,19.9
2017-08-23T04:59:39.630Z,19.9
2017-08-23T05:00:47.805Z,19.9
2017-08-23T05:01:55.800Z,19.9
2017-08-23T05:03:03.887Z,19.9
2017-08-23T05:04:11.972Z,19.9
2017-08-23T05:05:20.066Z,19.9
2017-08-23T05:06:28.146Z,19.9
2017-08-23T05:07:36.230Z,19.9
2017-08-23T05:08:44.320Z,19.9
2017-08-23T05:09:52.403Z,19.9
2017-08-23T05:11:00.490Z,19.9
2017-08-23T05:12:08.575Z,20.0
2017-08-23T05:13:16.660Z,19.9
2017-08-23T05:14:24.748Z,19.9
2017-08-23T05:15:32.844Z,19.9
2017-08-23T05:16:40.916Z,19.9
2017-08-23T05:17:49.005Z,19.9
2017-08-23T05:18:57.091Z,19.9
2017-08-23T05:20:05.176Z,19.9
2017-08-23T05:21:13.262Z,19.9
2017-08-23T05:22:21.349Z,20.0
2017-08-23T05:23:29.435Z,19.9
2017-08-23T05:24:37.527Z,19.9
2017-08-23T05:25:45.608Z,20.0
2017-08-23T05:26:53.692Z,19.9
2017-08-23T05:28:01.778Z,19.9
2017-08-23T05:29:09.865Z,19.9
2017-08-23T05:30:17.950Z,19.9
2017-08-23T05:31:26.037Z,19.9
2017-08-23T05:32:34.124Z,19.9
2017-08-23T05:33:42.214Z,19.9
2017-08-23T05:34:50.299Z,19.9
2017-08-23T05:35:58.385Z,19.9
2017-08-23T05:37:06.470Z,19.9
2017-08-23T05:38:14.557Z,19.9
2017-08-23T05:39:22.664Z,19.9
2017-08-23T05:40:30.727Z,19.9
2017-08-23T05:41:38.823Z,19.9
2017-08-23T05:42:46.898Z,19.9
2017-08-23T05:43:54.984Z,19.9
2017-08-23T05:45:03.193Z,19.9
2017-08-23T05:46:11.270Z,19.9
2017-08-23T05:47:19.357Z,19.9
2017-08-23T05:48:27.444Z,19.9
2017-08-23T05:49:35.528Z,19.9
2017-08-23T05:50:43.612Z,19.8
2017-08-23T05:51:51.697Z,19.9
2017-08-23T05:52:59.784Z,19.9
2017-08-23T05:54:07.878Z,19.9
2017-08-23T05:55:15.957Z,19.9
2017-08-23T05:56:24.044Z,19.9
2017-08-23T05:57:32.151Z,19.9
2017-08-23T05:58:40.215Z,19.9
2017-08-23T05:59:48.300Z,19.9
2017-08-23T06:00:56.386Z,19.9
2017-08-23T06:02:04.512Z,19.9
2017-08-23T06:03:12.591Z,19.9
2017-08-23T06:04:20.694Z,19.9
2017-08-23T06:05:28.764Z,19.9
2017-08-23T06:06:36.847Z,19.9
2017-08-23T06:07:44.934Z,19.9
2017-08-23T06:08:53.020Z,19.8
2017-08-23T06:10:01.102Z,19.9
2017-08-23T06:11:09.195Z,19.9
2017-08-23T06:12:17.278Z,19.9
2017-08-23T06:13:25.365Z,19.8
2017-08-23T06:14:33.450Z,19.9
2017-08-23T06:15:41.550Z,19.9
2017-08-23T06:16:49.623Z,19.9
2017-08-23T06:17:57.709Z,19.8
2017-08-23T06:19:05.798Z,19.9
2017-08-23T06:20:13.881Z,19.8
2017-08-23T06:21:21.968Z,19.9
2017-08-23T06:22:30.052Z,19.8
2017-08-23T06:23:38.142Z,19.9
2017-08-23T06:24:46.229Z,19.8
2017-08-23T06:25:54.315Z,19.9
2017-08-23T06:27:02.402Z,19.9
2017-08-23T06:28:10.488Z,19.9
2017-08-23T06:29:18.573Z,19.9
2017-08-23T06:30:26.660Z,19.8
2017-08-23T06:31:34.746Z,19.8
2017-08-23T06:32:42.830Z,19.9
2017-08-23T06:33:50.917Z,19.8
2017-08-23T06:34:59.007Z,19.8
2017-08-23T06:36:07.089Z,19.9
2017-08-23T06:37:15.175Z,19.9
2017-08-23T06:38:23.261Z,19.9
2017-08-23T06:39:31.356Z,19.9
2017-08-23T06:40:39.435Z,19.9
2017-08-23T06:41:47.529Z,19.9
2017-08-23T06:42:55.613Z,19.8
2017-08-23T06:44:03.699Z,19.8
2017-08-23T06:45:11.786Z,19.8
2017-08-23T06:46:19.871Z,19.9
2017-08-23T06:47:27.959Z,19.8
2017-08-23T06:48:36.045Z,19.9
2017-08-23T06:49:44.135Z,19.9
2017-08-23T06:50:52.214Z,19.8
2017-08-23T06:52:00.300Z,19.8
2017-08-23T06:53:08.390Z,19.8
2017-08-23T06:54:16.490Z,19.9
2017-08-23T06:55:24.558Z,19.9
2017-08-23T06:56:32.647Z,19.9
2017-08-23T06:57:40.753Z,19.9
2017-08-23T06:58:48.821Z,19.8
2017-08-23T06:59:56.906Z,19.9
2017-08-23T07:01:04.993Z,19.8
2017-08-23T07:02:13.081Z,19.9
2017-08-23T07:03:21.172Z,19.8
2017-08-23T07:04:29.258Z,19.8
2017-08-23T07:05:37.345Z,19.8
2017-08-23T07:06:45.428Z,19.8
2017-08-23T07:07:53.515Z,19.9
2017-08-23T07:09:01.601Z,19.8
2017-08-23T07:10:09.688Z,19.9
2017-08-23T07:11:17.774Z,19.9
2017-08-23T07:12:25.861Z,19.9
2017-08-23T07:13:33.949Z,19.9
2017-08-23T07:14:42.034Z,19.9
2017-08-23T07:15:50.125Z,19.9
2017-08-23T07:16:58.212Z,19.8
2017-08-23T07:18:06.317Z,19.8
2017-08-23T07:19:14.402Z,19.8
2017-08-23T07:20:22.493Z,19.8
2017-08-23T07:21:30.577Z,19.9
2017-08-23T07:22:38.664Z,19.9
2017-08-23T07:23:46.751Z,19.9
2017-08-23T07:24:54.837Z,19.8
2017-08-23T07:26:02.927Z,19.8
2017-08-23T07:27:11.008Z,19.9
2017-08-23T07:28:19.102Z,19.8
2017-08-23T07:29:27.180Z,19.8
2017-08-23T07:30:35.266Z,19.8
2017-08-23T07:31:43.351Z,19.8
2017-08-23T07:32:51.436Z,19.9
2017-08-23T07:33:59.522Z,19.8
2017-08-23T07:35:07.608Z,19.8
2017-08-23T07:36:15.694Z,19.8
2017-08-23T07:37:23.780Z,19.9
2017-08-23T07:38:31.868Z,19.8
2017-08-23T07:39:39.964Z,19.8
2017-08-23T07:40:48.047Z,19.8
2017-08-23T07:41:56.145Z,19.9
2017-08-23T07:43:04.235Z,19.8
2017-08-23T07:44:12.320Z,19.8
2017-08-23T07:45:20.408Z,19.8
2017-08-23T07:46:28.493Z,19.7
2017-08-23T07:47:36.583Z,19.8
2017-08-23T07:48:44.664Z,19.8
2017-08-23T07:49:52.749Z,19.9
2017-08-23T07:51:00.853Z,19.8
2017-08-23T07:52:08.933Z,19.8
2017-08-23T07:53:17.020Z,19.8
2017-08-23T07:54:25.103Z,19.8
2017-08-23T07:55:33.210Z,19.9
2017-08-23T07:56:41.274Z,19.8
2017-08-23T07:57:49.364Z,19.8
2017-08-23T07:58:57.447Z,19.9
2017-08-23T08:00:05.536Z,19.8
2017-08-23T08:01:13.620Z,19.8
2017-08-23T08:02:21.710Z,19.8
2017-08-23T08:03:29.795Z,19.8
2017-08-23T08:04:37.875Z,19.8
2017-08-23T08:05:45.960Z,19.8
2017-08-23T08:06:54.047Z,19.8
2017-08-23T08:08:02.133Z,19.8
2017-08-23T08:09:10.222Z,19.8
2017-08-23T08:10:18.311Z,19.9
2017-08-23T08:11:26.393Z,19.9
2017-08-23T08:12:34.477Z,19.8
2017-08-23T08:13:42.567Z,19.9
2017-08-23T08:14:50.647Z,19.9
2017-08-23T08:15:58.736Z,19.9
2017-08-23T08:17:06.819Z,19.8
2017-08-23T08:18:14.905Z,19.8
2017-08-23T08:19:22.993Z,19.9
2017-08-23T08:20:31.077Z,19.9
2017-08-23T08:21:39.239Z,19.9
2017-08-23T08:22:47.249Z,19.9
2017-08-23T08:23:55.334Z,19.9
2017-08-23T08:25:03.418Z,19.9
2017-08-23T08:26:11.505Z,19.9
2017-08-23T08:27:19.592Z,19.9
2017-08-23T08:28:27.677Z,19.9
2017-08-23T08:29:35.764Z,19.9
2017-08-23T08:30:43.854Z,19.9
2017-08-23T08:31:51.940Z,19.9
2017-08-23T08:33:00.020Z,19.9
2017-08-23T08:34:08.108Z,19.9
2017-08-23T08:35:16.192Z,19.9
2017-08-23T08:36:24.287Z,19.9
2017-08-23T08:37:32.374Z,19.9
2017-08-23T08:38:40.459Z,19.9
2017-08-23T08:39:48.548Z,20.0
2017-08-23T08:40:56.631Z,19.9
2017-08-23T08:42:04.715Z,20.0
2017-08-23T08:43:12.804Z,19.9
2017-08-23T08:44:20.889Z,20.0
2017-08-23T08:45:28.981Z,20.0
2017-08-23T08:46:37.071Z,19.9
2017-08-23T08:47:45.157Z,20.0
2017-08-23T08:48:53.248Z,20.0
2017-08-23T08:50:01.329Z,20.0
2017-08-23T08:51:09.416Z,20.0
2017-08-23T08:52:17.502Z,20.0
2017-08-23T08:53:25.589Z,19.9
2017-08-23T08:54:33.675Z,20.0
2017-08-23T08:55:41.760Z,20.0
2017-08-23T08:56:49.845Z,20.0
2017-08-23T08:57:57.934Z,20.0
2017-08-23T08:59:06.020Z,19.9
2017-08-23T09:00:14.105Z,20.0
2017-08-23T09:01:22.199Z,20.0
2017-08-23T09:02:30.287Z,20.1
2017-08-23T09:03:38.373Z,20.0
2017-08-23T09:04:46.460Z,20.1
2017-08-23T09:05:54.546Z,20.1
2017-08-23T09:07:02.633Z,20.1
2017-08-23T09:08:10.718Z,20.0
2017-08-23T09:09:18.808Z,20.1
2017-08-23T09:10:26.891Z,20.0
2017-08-23T09:11:34.993Z,20.0
2017-08-23T09:12:43.073Z,20.0
2017-08-23T09:13:51.167Z,20.1
2017-08-23T09:14:59.246Z,20.1
2017-08-23T09:16:07.331Z,20.1
2017-08-23T09:17:15.418Z,20.1
2017-08-23T09:18:23.506Z,20.1
2017-08-23T09:19:31.590Z,20.1
2017-08-23T09:20:39.682Z,20.1
2017-08-23T09:21:47.780Z,20.1
2017-08-23T09:22:55.851Z,20.1
2017-08-23T09:24:03.937Z,20.1
2017-08-23T09:25:12.024Z,20.1
2017-08-23T09:26:20.109Z,20.2
2017-08-23T09:27:28.204Z,20.2
2017-08-23T09:28:36.297Z,20.2
2017-08-23T09:29:44.378Z,20.2
2017-08-23T09:30:52.529Z,20.1
2017-08-23T09:32:00.618Z,20.2
2017-08-23T09:33:08.704Z,20.2
2017-08-23T09:34:16.796Z,20.3
2017-08-23T09:35:24.882Z,20.2
2017-08-23T09:36:32.968Z,20.2
2017-08-23T09:37:41.054Z,20.2
2017-08-23T09:38:49.142Z,20.3
2017-08-23T09:39:57.237Z,20.3
2017-08-23T09:41:05.343Z,20.3
2017-08-23T09:42:13.414Z,20.3
2017-08-23T09:43:21.503Z,20.3
2017-08-23T09:44:29.585Z,20.3
2017-08-23T09:45:37.670Z,20.3
2017-08-23T09:46:45.804Z,20.3
2017-08-23T09:47:53.844Z,20.3
2017-08-23T09:49:01.930Z,20.2
2017-08-23T09:50:10.015Z,20.4
2017-08-23T09:51:18.103Z,20.3
2017-08-23T09:52:26.190Z,20.4
2017-08-23T09:53:34.286Z,20.4
2017-08-23T09:54:42.370Z,20.4
2017-08-23T09:55:50.454Z,20.4
2017-08-23T09:56:58.540Z,20.4
2017-08-23T09:58:06.719Z,20.3
2017-08-23T09:59:14.713Z,20.3
2017-08-23T10:00:22.802Z,20.3
2017-08-23T10:01:30.887Z,20.5
2017-08-23T10:02:38.974Z,20.3
2017-08-23T10:03:47.068Z,20.3
2017-08-23T10:04:55.147Z,20.5
2017-08-23T10:06:03.235Z,20.4
2017-08-23T10:07:11.321Z,20.4
2017-08-23T10:08:19.409Z,20.4
2017-08-23T10:09:28.152Z,20.4
2017-08-23T10:10:36.238Z,20.4
2017-08-23T10:11:44.324Z,20.4
2017-08-23T10:12:52.411Z,20.5
2017-08-23T10:14:00.498Z,20.4
2017-08-23T10:15:08.586Z,20.5
2017-08-23T10:16:16.674Z,20.5
2017-08-23T10:17:24.768Z,20.5
2017-08-23T10:18:32.897Z,20.5
2017-08-23T10:19:40.942Z,20.5
2017-08-23T10:20:49.030Z,20.5
2017-08-23T10:21:57.122Z,20.5
2017-08-23T10:23:05.204Z,20.5
2017-08-23T10:24:13.290Z,20.5
2017-08-23T10:25:21.380Z,20.5
2017-08-23T10:26:29.473Z,20.5
2017-08-23T10:27:37.550Z,20.6
2017-08-23T10:28:45.646Z,20.6
2017-08-23T10:29:53.738Z,20.6
2017-08-23T10:31:01.824Z,20.6
2017-08-23T10:32:09.912Z,20.7
2017-08-23T10:33:17.999Z,20.6
2017-08-23T10:34:26.086Z,20.7
2017-08-23T10:35:34.170Z,20.6
2017-08-23T10:36:42.356Z,20.6
2017-08-23T10:37:50.366Z,20.7
2017-08-23T10:38:58.453Z,20.7
2017-08-23T10:40:06.544Z,20.7
2017-08-23T10:41:14.628Z,20.7
2017-08-23T10:42:22.724Z,20.7
2017-08-23T10:43:30.800Z,20.7
2017-08-23T10:44:38.889Z,20.7
2017-08-23T10:45:46.986Z,20.7
2017-08-23T10:46:55.090Z,20.7
2017-08-23T10:48:03.179Z,20.7
2017-08-23T10:49:11.267Z,20.7
2017-08-23T10:50:19.362Z,20.7
2017-08-23T10:51:27.442Z,20.7
2017-08-23T10:52:35.527Z,20.7
2017-08-23T10:53:43.614Z,20.8
2017-08-23T10:54:51.701Z,20.9
2017-08-23T10:55:59.792Z,20.8
2017-08-23T10:57:07.878Z,20.8
2017-08-23T10:58:15.963Z,20.8
2017-08-23T10:59:24.052Z,20.8
2017-08-23T11:00:32.139Z,20.8
2017-08-23T11:01:40.252Z,20.8
2017-08-23T11:02:48.330Z,20.8
2017-08-23T11:03:56.398Z,20.8
2017-08-23T11:05:04.591Z,20.8
2017-08-23T11:06:12.681Z,20.8
2017-08-23T11:07:20.772Z,20.9
2017-08-23T11:08:28.861Z,20.9
2017-08-23T11:09:36.957Z,20.9
2017-08-23T11:10:45.039Z,20.9
2017-08-23T11:11:53.150Z,20.9
2017-08-23T11:13:01.216Z,20.9
2017-08-23T11:14:09.361Z,20.9
2017-08-23T11:15:17.387Z,20.9
2017-08-23T11:16:25.493Z,21.0
2017-08-23T11:17:33.575Z,20.9
2017-08-23T11:18:41.650Z,20.9
2017-08-23T11:19:49.741Z,21.0
2017-08-23T11:20:57.824Z,21.0
2017-08-23T11:22:05.914Z,21.0
2017-08-23T11:23:14.000Z,21.1
2017-08-23T11:24:22.086Z,21.0
2017-08-23T11:25:30.172Z,20.9
2017-08-23T11:26:38.261Z,21.0
2017-08-23T11:27:46.348Z,21.0
2017-08-23T11:28:54.434Z,21.0
2017-08-23T11:30:02.522Z,21.0
2017-08-23T11:31:10.609Z,21.0
2017-08-23T11:32:18.699Z,21.0
2017-08-23T11:33:26.781Z,21.0
2017-08-23T11:34:34.874Z,21.1
2017-08-23T11:35:42.988Z,21.1
2017-08-23T11:36:51.043Z,21.0
2017-08-23T11:37:59.131Z,21.1
2017-08-23T11:39:07.658Z,21.1
2017-08-23T11:40:15.671Z,21.1
2017-08-23T11:41:23.413Z,21.0
2017-08-23T11:42:31.619Z,21.1
2017-08-23T11:43:39.575Z,21.0
2017-08-23T11:44:47.654Z,21.1
2017-08-23T11:45:55.740Z,21.1
2017-08-23T11:47:03.833Z,21.2
2017-08-23T11:48:11.924Z,21.1
2017-08-23T11:49:20.009Z,21.2
2017-08-23T11:50:28.095Z,21.2
2017-08-23T11:51:36.181Z,21.2
2017-08-23T11:52:44.270Z,21.2
2017-08-23T11:53:52.366Z,21.1
2017-08-23T11:55:00.670Z,21.2
2017-08-23T11:56:08.547Z,21.2
2017-08-23T11:57:16.638Z,21.2
2017-08-23T11:58:24.754Z,21.3
2017-08-23T11:59:32.891Z,21.2
2017-08-23T12:00:40.895Z,21.3
2017-08-23T12:01:49.053Z,21.2
2017-08-23T12:02:57.080Z,21.2
2017-08-23T12:04:05.158Z,21.3
2017-08-23T12:05:13.245Z,21.3
2017-08-23T12:06:21.357Z,21.3
2017-08-23T12:07:29.476Z,21.3
2017-08-23T12:08:37.533Z,21.3
2017-08-23T12:09:45.620Z,21.4
2017-08-23T12:10:53.708Z,21.3
2017-08-23T12:12:01.998Z,21.4
2017-08-23T12:13:09.882Z,21.4
2017-08-23T12:14:17.971Z,21.3
2017-08-23T12:15:26.058Z,21.4
2017-08-23T12:16:34.148Z,21.3
2017-08-23T12:17:42.234Z,21.4
2017-08-23T12:18:50.326Z,21.4
2017-08-23T12:19:58.408Z,21.4
2017-08-23T12:21:06.499Z,21.4
2017-08-23T12:22:14.585Z,21.4
2017-08-23T12:23:22.670Z,21.4
2017-08-23T12:24:30.756Z,21.4
2017-08-23T12:25:38.843Z,21.5
2017-08-23T12:26:46.933Z,21.5
2017-08-23T12:27:55.028Z,21.5
2017-08-23T12:29:03.114Z,21.5
2017-08-23T12:30:11.193Z,21.6
2017-08-23T12:31:19.297Z,21.5
2017-08-23T12:32:27.392Z,21.5
2017-08-23T12:33:35.479Z,21.4
2017-08-23T12:34:43.569Z,21.6
2017-08-23T12:35:51.655Z,21.5
2017-08-23T12:36:59.755Z,21.5
2017-08-23T12:38:07.839Z,21.5
2017-08-23T12:39:15.925Z,21.6
2017-08-23T12:40:24.015Z,21.6
2017-08-23T12:41:32.102Z,21.6
2017-08-23T12:42:40.199Z,21.6
2017-08-23T12:43:48.285Z,21.6
2017-08-23T12:44:56.471Z,21.6
2017-08-23T12:46:04.475Z,21.6
2017-08-23T12:47:12.556Z,21.6
2017-08-23T12:48:20.644Z,21.6
2017-08-23T12:49:28.733Z,21.7
2017-08-23T12:50:36.820Z,21.6
2017-08-23T12:51:44.911Z,21.6
2017-08-23T12:52:52.995Z,21.6
2017-08-23T12:54:01.085Z,21.6
2017-08-23T12:55:09.169Z,21.6
2017-08-23T12:56:17.257Z,21.6
2017-08-23T12:57:25.346Z,21.6
2017-08-23T12:58:33.433Z,21.7
2017-08-23T12:59:41.520Z,21.6
2017-08-23T13:00:49.607Z,21.6
2017-08-23T13:01:57.694Z,21.6
2017-08-23T13:03:05.787Z,21.7
2017-08-23T13:04:13.877Z,21.7
2017-08-23T13:05:22.088Z,21.7
2017-08-23T13:06:30.167Z,21.7
2017-08-23T13:07:38.256Z,21.7
2017-08-23T13:08:46.345Z,21.7
2017-08-23T13:09:54.463Z,21.6
2017-08-23T13:11:02.520Z,21.7
2017-08-23T13:12:10.607Z,21.7
2017-08-23T13:13:18.698Z,21.7
2017-08-23T13:14:26.785Z,21.8
2017-08-23T13:15:34.878Z,21.7
2017-08-23T13:16:42.975Z,21.8
2017-08-23T13:17:51.053Z,21.7
2017-08-23T13:18:59.144Z,21.8
2017-08-23T13:20:07.230Z,21.8
2017-08-23T13:21:15.324Z,21.8
2017-08-23T13:22:23.608Z,21.8
2017-08-23T13:23:31.504Z,21.8
2017-08-23T13:24:39.586Z,21.8
2017-08-23T13:25:47.676Z,21.8
2017-08-23T13:26:55.764Z,21.8
2017-08-23T13:28:03.853Z,21.8
2017-08-23T13:29:11.944Z,21.8
2017-08-23T13:30:20.040Z,21.8
2017-08-23T13:31:28.114Z,21.8
2017-08-23T13:32:36.204Z,21.7
2017-08-23T13:33:44.292Z,21.8
2017-08-23T13:34:52.379Z,21.8
2017-08-23T13:36:00.476Z,21.9
2017-08-23T13:37:08.563Z,21.9
2017-08-23T13:38:16.652Z,21.9
2017-08-23T13:39:24.739Z,21.9
2017-08-23T13:40:32.827Z,21.9
2017-08-23T13:41:40.915Z,21.9
2017-08-23T13:42:49.003Z,21.9
2017-08-23T13:43:57.090Z,21.9
2017-08-23T13:45:05.178Z,21.9
2017-08-23T13:46:13.265Z,21.9
2017-08-23T13:47:21.351Z,21.9
2017-08-23T13:48:29.439Z,21.9
2017-08-23T13:49:37.529Z,22.0
2017-08-23T13:50:45.615Z,22.0
2017-08-23T13:51:53.712Z,21.9
2017-08-23T13:53:01.793Z,22.0
2017-08-23T13:54:09.884Z,21.9
2017-08-23T13:55:17.972Z,22.0
2017-08-23T13:56:26.061Z,21.9
2017-08-23T13:57:34.161Z,21.9
2017-08-23T13:58:42.248Z,22.0
2017-08-23T13:59:50.332Z,21.9
2017-08-23T14:00:58.419Z,22.0
2017-08-23T14:02:06.507Z,22.0
2017-08-23T14:03:14.594Z,22.0
2017-08-23T14:04:22.683Z,22.0
2017-08-23T14:05:30.772Z,22.1
2017-08-23T14:06:38.862Z,22.1
2017-08-23T14:07:46.945Z,22.1
2017-08-23T14:08:55.035Z,22.0
2017-08-23T14:10:03.124Z,22.0
2017-08-23T14:11:11.219Z,22.1
2017-08-23T14:12:19.388Z,22.1
2017-08-23T14:13:27.421Z,22.1
2017-08-23T14:14:35.507Z,22.1
2017-08-23T14:15:43.596Z,22.1
2017-08-23T14:16:51.684Z,22.2
2017-08-23T14:17:59.775Z,22.1
2017-08-23T14:19:07.862Z,22.1
2017-08-23T14:20:15.950Z,22.1
2017-08-23T14:21:24.037Z,22.1
2017-08-23T14:22:32.156Z,22.2
2017-08-23T14:23:40.218Z,22.2
2017-08-23T14:24:48.302Z,22.1
2017-08-23T14:25:56.387Z,22.2
2017-08-23T14:27:04.474Z,22.2
2017-08-23T14:28:12.563Z,22.2
2017-08-23T14:29:20.751Z,22.2
2017-08-23T14:30:28.994Z,22.2
2017-08-23T14:31:36.828Z,22.2
2017-08-23T14:32:44.960Z,22.2
2017-08-23T14:33:53.061Z,22.1
2017-08-23T14:35:01.093Z,22.3
2017-08-23T14:36:09.181Z,22.2
2017-08-23T14:37:17.268Z,22.3
2017-08-23T14:38:25.373Z,22.3
2017-08-23T14:39:33.445Z,22.2
2017-08-23T14:40:41.534Z,22.3
2017-08-23T14:41:49.621Z,22.3
2017-08-23T14:42:57.709Z,22.3
2017-08-23T14:44:05.798Z,22.4
2017-08-23T14:45:13.884Z,22.3
2017-08-23T14:46:21.972Z,22.2
2017-08-23T14:47:30.067Z,22.2
2017-08-23T14:48:38.155Z,22.3
2017-08-23T14:49:46.243Z,22.3
2017-08-23T14:50:54.331Z,22.3
2017-08-23T14:52:02.420Z,22.3
2017-08-23T14:53:10.506Z,22.3
2017-08-23T14:54:18.596Z,22.4
2017-08-23T14:55:26.683Z,22.3
2017-08-23T14:56:34.780Z,22.4
2017-08-23T14:57:42.860Z,22.3
2017-08-23T14:58:50.954Z,22.4
2017-08-23T14:59:59.036Z,22.4
2017-08-23T15:01:07.130Z,22.4
2017-08-23T15:02:15.222Z,22.4
2017-08-23T15:03:23.303Z,22.4
2017-08-23T15:04:31.396Z,22.4
2017-08-23T15:05:39.479Z,22.4